sensor_id;sensor_type;location;lat;lon;timestamp;P1;durP1;ratioP1;P2;durP2;ratioP2
35245;SDS011;21379;50.962;6.960;2023-12-20T00:07:06;15.52;;;7.90;;
35245;SDS011;21379;50.962;6.960;2023-12-20T00:09:33;15.93;;;8.45;;
35245;SDS011;21379;50.962;6.960;2023-12-20T00:12:00;16.42;;;9.13;;
35245;SDS011;21379;50.962;6.960;2023-12-20T00:14:28;14.32;;;7.65;;
35245;SDS011;21379;50.962;6.960;2023-12-20T00:21:47;14.02;;;7.05;;
35245;SDS011;21379;50.962;6.960;2023-12-20T00:24:14;14.25;;;8.07;;
35245;SDS011;21379;50.962;6.960;2023-12-20T00:26:41;13.32;;;7.35;;
35245;SDS011;21379;50.962;6.960;2023-12-20T00:29:08;17.08;;;7.82;;
35245;SDS011;21379;50.962;6.960;2023-12-20T00:31:36;11.48;;;6.97;;
35245;SDS011;21379;50.962;6.960;2023-12-20T00:34:02;7.72;;;4.63;;
35245;SDS011;21379;50.962;6.960;2023-12-20T00:36:29;10.50;;;6.50;;
35245;SDS011;21379;50.962;6.960;2023-12-20T00:38:56;10.52;;;6.07;;
35245;SDS011;21379;50.962;6.960;2023-12-20T00:41:22;8.18;;;4.47;;
35245;SDS011;21379;50.962;6.960;2023-12-20T00:43:49;8.82;;;4.93;;
35245;SDS011;21379;50.962;6.960;2023-12-20T00:46:16;7.82;;;4.35;;
35245;SDS011;21379;50.962;6.960;2023-12-20T00:48:44;7.88;;;3.90;;
35245;SDS011;21379;50.962;6.960;2023-12-20T00:51:11;6.50;;;3.90;;
35245;SDS011;21379;50.962;6.960;2023-12-20T00:53:37;5.60;;;3.53;;
35245;SDS011;21379;50.962;6.960;2023-12-20T00:56:04;6.85;;;4.15;;
35245;SDS011;21379;50.962;6.960;2023-12-20T00:58:31;8.27;;;3.85;;
35245;SDS011;21379;50.962;6.960;2023-12-20T01:00:57;3.40;;;2.30;;
35245;SDS011;21379;50.962;6.960;2023-12-20T01:03:24;5.25;;;2.70;;
35245;SDS011;21379;50.962;6.960;2023-12-20T01:05:52;6.65;;;2.60;;
35245;SDS011;21379;50.962;6.960;2023-12-20T01:08:19;4.80;;;2.40;;
35245;SDS011;21379;50.962;6.960;2023-12-20T01:10:45;4.85;;;2.65;;
35245;SDS011;21379;50.962;6.960;2023-12-20T01:13:13;6.38;;;3.38;;
35245;SDS011;21379;50.962;6.960;2023-12-20T01:15:39;5.82;;;2.47;;
35245;SDS011;21379;50.962;6.960;2023-12-20T01:18:06;5.72;;;2.50;;
35245;SDS011;21379;50.962;6.960;2023-12-20T01:20:33;5.28;;;2.70;;
35245;SDS011;21379;50.962;6.960;2023-12-20T01:23:02;5.68;;;2.20;;
35245;SDS011;21379;50.962;6.960;2023-12-20T01:32:48;6.35;;;3.25;;
35245;SDS011;21379;50.962;6.960;2023-12-20T01:35:14;7.00;;;3.58;;
35245;SDS011;21379;50.962;6.960;2023-12-20T01:37:41;12.23;;;4.18;;
35245;SDS011;21379;50.962;6.960;2023-12-20T01:40:10;10.00;;;4.50;;
35245;SDS011;21379;50.962;6.960;2023-12-20T01:42:36;13.23;;;5.38;;
35245;SDS011;21379;50.962;6.960;2023-12-20T01:45:03;12.65;;;5.93;;
35245;SDS011;21379;50.962;6.960;2023-12-20T01:47:31;13.70;;;6.32;;
35245;SDS011;21379;50.962;6.960;2023-12-20T01:49:57;11.98;;;5.18;;
35245;SDS011;21379;50.962;6.960;2023-12-20T01:52:24;18.27;;;6.13;;
35245;SDS011;21379;50.962;6.960;2023-12-20T01:54:52;15.77;;;6.20;;
35245;SDS011;21379;50.962;6.960;2023-12-20T01:59:47;10.00;;;5.50;;
35245;SDS011;21379;50.962;6.960;2023-12-20T02:02:14;16.35;;;5.97;;
35245;SDS011;21379;50.962;6.960;2023-12-20T02:04:41;13.48;;;6.95;;
35245;SDS011;21379;50.962;6.960;2023-12-20T02:07:08;14.68;;;5.70;;
35245;SDS011;21379;50.962;6.960;2023-12-20T02:09:35;15.88;;;6.50;;
35245;SDS011;21379;50.962;6.960;2023-12-20T02:12:03;14.00;;;7.28;;
35245;SDS011;21379;50.962;6.960;2023-12-20T02:14:31;15.45;;;6.78;;
35245;SDS011;21379;50.962;6.960;2023-12-20T02:16:58;15.57;;;7.85;;
35245;SDS011;21379;50.962;6.960;2023-12-20T02:19:25;14.60;;;6.15;;
35245;SDS011;21379;50.962;6.960;2023-12-20T02:22:05;17.55;;;7.50;;
35245;SDS011;21379;50.962;6.960;2023-12-20T02:24:33;14.88;;;6.30;;
35245;SDS011;21379;50.962;6.960;2023-12-20T02:26:59;12.18;;;5.45;;
35245;SDS011;21379;50.962;6.960;2023-12-20T02:29:26;13.50;;;5.13;;
35245;SDS011;21379;50.962;6.960;2023-12-20T02:31:53;12.60;;;5.70;;
35245;SDS011;21379;50.962;6.960;2023-12-20T02:34:19;13.30;;;5.15;;
35245;SDS011;21379;50.962;6.960;2023-12-20T02:36:46;12.32;;;4.95;;
35245;SDS011;21379;50.962;6.960;2023-12-20T02:39:14;10.40;;;4.88;;
35245;SDS011;21379;50.962;6.960;2023-12-20T02:41:41;9.82;;;4.13;;
35245;SDS011;21379;50.962;6.960;2023-12-20T02:44:07;16.23;;;4.63;;
35245;SDS011;21379;50.962;6.960;2023-12-20T02:46:34;12.13;;;3.75;;
35245;SDS011;21379;50.962;6.960;2023-12-20T02:49:01;9.20;;;3.17;;
35245;SDS011;21379;50.962;6.960;2023-12-20T02:51:27;8.68;;;3.35;;
35245;SDS011;21379;50.962;6.960;2023-12-20T02:53:54;8.00;;;2.55;;
35245;SDS011;21379;50.962;6.960;2023-12-20T02:56:22;8.70;;;3.17;;
35245;SDS011;21379;50.962;6.960;2023-12-20T02:58:49;8.60;;;2.67;;
35245;SDS011;21379;50.962;6.960;2023-12-20T03:01:15;10.77;;;2.97;;
35245;SDS011;21379;50.962;6.960;2023-12-20T03:03:42;6.68;;;2.80;;
35245;SDS011;21379;50.962;6.960;2023-12-20T03:06:08;9.65;;;2.55;;
35245;SDS011;21379;50.962;6.960;2023-12-20T03:08:34;13.57;;;2.50;;
35245;SDS011;21379;50.962;6.960;2023-12-20T03:11:01;14.13;;;1.60;;
35245;SDS011;21379;50.962;6.960;2023-12-20T03:13:29;9.43;;;2.45;;
35245;SDS011;21379;50.962;6.960;2023-12-20T03:15:55;10.63;;;2.13;;
35245;SDS011;21379;50.962;6.960;2023-12-20T03:18:22;13.50;;;2.42;;
35245;SDS011;21379;50.962;6.960;2023-12-20T03:20:49;8.35;;;2.00;;
35245;SDS011;21379;50.962;6.960;2023-12-20T03:23:16;8.48;;;2.28;;
35245;SDS011;21379;50.962;6.960;2023-12-20T03:25:42;8.20;;;1.63;;
35245;SDS011;21379;50.962;6.960;2023-12-20T03:28:09;13.32;;;3.03;;
35245;SDS011;21379;50.962;6.960;2023-12-20T03:30:37;5.03;;;1.75;;
35245;SDS011;21379;50.962;6.960;2023-12-20T03:33:04;7.53;;;1.88;;
35245;SDS011;21379;50.962;6.960;2023-12-20T03:35:30;7.43;;;1.88;;
35245;SDS011;21379;50.962;6.960;2023-12-20T03:37:57;11.45;;;2.75;;
35245;SDS011;21379;50.962;6.960;2023-12-20T03:40:25;9.05;;;2.00;;
35245;SDS011;21379;50.962;6.960;2023-12-20T03:42:51;6.90;;;2.00;;
35245;SDS011;21379;50.962;6.960;2023-12-20T03:45:18;10.52;;;2.25;;
35245;SDS011;21379;50.962;6.960;2023-12-20T03:47:46;5.65;;;1.63;;
35245;SDS011;21379;50.962;6.960;2023-12-20T03:50:13;12.55;;;2.30;;
35245;SDS011;21379;50.962;6.960;2023-12-20T03:52:40;6.85;;;2.47;;
35245;SDS011;21379;50.962;6.960;2023-12-20T03:55:07;13.77;;;2.65;;
35245;SDS011;21379;50.962;6.960;2023-12-20T03:57:34;5.90;;;2.05;;
35245;SDS011;21379;50.962;6.960;2023-12-20T04:00:00;9.10;;;1.98;;
35245;SDS011;21379;50.962;6.960;2023-12-20T04:02:37;13.48;;;2.42;;
35245;SDS011;21379;50.962;6.960;2023-12-20T04:05:06;9.95;;;2.00;;
35245;SDS011;21379;50.962;6.960;2023-12-20T04:07:33;11.05;;;2.90;;
35245;SDS011;21379;50.962;6.960;2023-12-20T04:10:00;9.02;;;2.47;;
35245;SDS011;21379;50.962;6.960;2023-12-20T04:12:27;3.38;;;1.58;;
35245;SDS011;21379;50.962;6.960;2023-12-20T04:14:54;13.93;;;2.55;;
35245;SDS011;21379;50.962;6.960;2023-12-20T04:17:20;12.38;;;2.17;;
35245;SDS011;21379;50.962;6.960;2023-12-20T04:19:48;7.68;;;2.28;;
35245;SDS011;21379;50.962;6.960;2023-12-20T04:22:16;11.07;;;2.30;;
35245;SDS011;21379;50.962;6.960;2023-12-20T04:24:43;12.52;;;2.90;;
35245;SDS011;21379;50.962;6.960;2023-12-20T04:27:10;6.35;;;2.40;;
35245;SDS011;21379;50.962;6.960;2023-12-20T04:29:37;7.28;;;2.63;;
35245;SDS011;21379;50.962;6.960;2023-12-20T04:32:04;10.05;;;2.65;;
35245;SDS011;21379;50.962;6.960;2023-12-20T04:34:31;11.63;;;2.80;;
35245;SDS011;21379;50.962;6.960;2023-12-20T04:36:57;13.70;;;2.45;;
35245;SDS011;21379;50.962;6.960;2023-12-20T04:39:25;7.53;;;2.30;;
35245;SDS011;21379;50.962;6.960;2023-12-20T04:41:52;9.18;;;2.97;;
35245;SDS011;21379;50.962;6.960;2023-12-20T04:44:19;11.50;;;2.78;;
35245;SDS011;21379;50.962;6.960;2023-12-20T04:46:45;11.18;;;2.70;;
35245;SDS011;21379;50.962;6.960;2023-12-20T04:49:12;14.07;;;3.20;;
35245;SDS011;21379;50.962;6.960;2023-12-20T04:51:39;12.70;;;2.67;;
35245;SDS011;21379;50.962;6.960;2023-12-20T04:54:05;11.15;;;2.80;;
35245;SDS011;21379;50.962;6.960;2023-12-20T04:56:33;7.20;;;2.40;;
35245;SDS011;21379;50.962;6.960;2023-12-20T04:59:00;8.13;;;3.28;;
35245;SDS011;21379;50.962;6.960;2023-12-20T05:01:27;5.30;;;1.65;;
35245;SDS011;21379;50.962;6.960;2023-12-20T05:03:54;9.20;;;2.90;;
35245;SDS011;21379;50.962;6.960;2023-12-20T05:06:20;9.55;;;3.05;;
35245;SDS011;21379;50.962;6.960;2023-12-20T05:08:47;6.65;;;2.30;;
35245;SDS011;21379;50.962;6.960;2023-12-20T05:11:14;9.77;;;2.33;;
35245;SDS011;21379;50.962;6.960;2023-12-20T05:13:42;8.38;;;2.65;;
35245;SDS011;21379;50.962;6.960;2023-12-20T05:16:09;9.20;;;2.85;;
35245;SDS011;21379;50.962;6.960;2023-12-20T05:18:35;4.55;;;1.88;;
35245;SDS011;21379;50.962;6.960;2023-12-20T05:21:02;8.60;;;2.30;;
35245;SDS011;21379;50.962;6.960;2023-12-20T05:23:29;9.98;;;2.50;;
35245;SDS011;21379;50.962;6.960;2023-12-20T05:25:56;7.18;;;3.80;;
35245;SDS011;21379;50.962;6.960;2023-12-20T05:28:24;12.90;;;3.65;;
35245;SDS011;21379;50.962;6.960;2023-12-20T05:30:52;8.65;;;2.10;;
35245;SDS011;21379;50.962;6.960;2023-12-20T05:33:18;11.45;;;2.45;;
35245;SDS011;21379;50.962;6.960;2023-12-20T05:35:45;10.00;;;2.42;;
35245;SDS011;21379;50.962;6.960;2023-12-20T05:38:12;13.00;;;2.85;;
35245;SDS011;21379;50.962;6.960;2023-12-20T05:40:38;6.05;;;2.78;;
35245;SDS011;21379;50.962;6.960;2023-12-20T05:43:05;10.07;;;2.13;;
35245;SDS011;21379;50.962;6.960;2023-12-20T05:45:32;10.70;;;3.47;;
35245;SDS011;21379;50.962;6.960;2023-12-20T05:48:00;9.85;;;2.03;;
35245;SDS011;21379;50.962;6.960;2023-12-20T05:50:26;12.63;;;3.80;;
35245;SDS011;21379;50.962;6.960;2023-12-20T05:52:53;11.68;;;3.47;;
35245;SDS011;21379;50.962;6.960;2023-12-20T05:55:20;10.10;;;3.17;;
35245;SDS011;21379;50.962;6.960;2023-12-20T05:57:47;9.93;;;3.25;;
35245;SDS011;21379;50.962;6.960;2023-12-20T06:00:14;7.45;;;3.33;;
35245;SDS011;21379;50.962;6.960;2023-12-20T06:02:41;9.70;;;2.50;;
35245;SDS011;21379;50.962;6.960;2023-12-20T06:05:10;12.35;;;2.60;;
35245;SDS011;21379;50.962;6.960;2023-12-20T06:07:37;7.30;;;2.80;;
35245;SDS011;21379;50.962;6.960;2023-12-20T06:10:04;7.10;;;2.17;;
35245;SDS011;21379;50.962;6.960;2023-12-20T06:12:31;5.55;;;2.10;;
35245;SDS011;21379;50.962;6.960;2023-12-20T06:15:00;14.98;;;3.00;;
35245;SDS011;21379;50.962;6.960;2023-12-20T06:17:27;5.68;;;3.17;;
35245;SDS011;21379;50.962;6.960;2023-12-20T06:19:55;13.30;;;3.05;;
35245;SDS011;21379;50.962;6.960;2023-12-20T06:22:23;12.80;;;3.40;;
35245;SDS011;21379;50.962;6.960;2023-12-20T06:24:50;17.95;;;4.53;;
35245;SDS011;21379;50.962;6.960;2023-12-20T06:27:17;12.05;;;3.25;;
35245;SDS011;21379;50.962;6.960;2023-12-20T06:29:43;11.68;;;3.50;;
35245;SDS011;21379;50.962;6.960;2023-12-20T06:32:10;12.13;;;3.53;;
35245;SDS011;21379;50.962;6.960;2023-12-20T06:34:37;10.90;;;3.22;;
35245;SDS011;21379;50.962;6.960;2023-12-20T06:37:04;19.02;;;5.50;;
35245;SDS011;21379;50.962;6.960;2023-12-20T06:39:32;8.45;;;2.65;;
35245;SDS011;21379;50.962;6.960;2023-12-20T06:44:25;8.88;;;2.97;;
35245;SDS011;21379;50.962;6.960;2023-12-20T06:46:52;10.65;;;3.10;;
35245;SDS011;21379;50.962;6.960;2023-12-20T06:49:19;6.72;;;2.85;;
35245;SDS011;21379;50.962;6.960;2023-12-20T06:51:45;16.17;;;2.92;;
35245;SDS011;21379;50.962;6.960;2023-12-20T06:54:12;17.45;;;3.17;;
35245;SDS011;21379;50.962;6.960;2023-12-20T06:56:40;12.85;;;3.13;;
35245;SDS011;21379;50.962;6.960;2023-12-20T07:01:33;15.35;;;2.80;;
35245;SDS011;21379;50.962;6.960;2023-12-20T07:04:00;10.77;;;2.67;;
35245;SDS011;21379;50.962;6.960;2023-12-20T07:06:27;13.93;;;3.78;;
35245;SDS011;21379;50.962;6.960;2023-12-20T07:08:53;15.73;;;4.45;;
35245;SDS011;21379;50.962;6.960;2023-12-20T07:11:20;15.95;;;3.60;;
35245;SDS011;21379;50.962;6.960;2023-12-20T07:13:48;17.02;;;3.70;;
35245;SDS011;21379;50.962;6.960;2023-12-20T07:18:41;11.80;;;3.38;;
35245;SDS011;21379;50.962;6.960;2023-12-20T07:21:08;16.35;;;3.25;;
35245;SDS011;21379;50.962;6.960;2023-12-20T07:23:34;11.70;;;3.45;;
35245;SDS011;21379;50.962;6.960;2023-12-20T07:26:01;10.75;;;2.80;;
35245;SDS011;21379;50.962;6.960;2023-12-20T07:28:29;10.52;;;3.70;;
35245;SDS011;21379;50.962;6.960;2023-12-20T07:30:57;13.25;;;3.17;;
35245;SDS011;21379;50.962;6.960;2023-12-20T07:35:50;10.13;;;3.03;;
35245;SDS011;21379;50.962;6.960;2023-12-20T07:38:17;9.50;;;2.75;;
35245;SDS011;21379;50.962;6.960;2023-12-20T07:40:44;5.22;;;2.30;;
35245;SDS011;21379;50.962;6.960;2023-12-20T07:43:10;11.98;;;3.25;;
35245;SDS011;21379;50.962;6.960;2023-12-20T07:45:37;10.15;;;3.42;;
35245;SDS011;21379;50.962;6.960;2023-12-20T07:48:06;11.10;;;4.03;;
35245;SDS011;21379;50.962;6.960;2023-12-20T07:50:33;15.25;;;3.95;;
35245;SDS011;21379;50.962;6.960;2023-12-20T07:53:00;8.82;;;3.33;;
35245;SDS011;21379;50.962;6.960;2023-12-20T07:55:27;13.75;;;2.88;;
35245;SDS011;21379;50.962;6.960;2023-12-20T07:57:53;15.15;;;3.45;;
35245;SDS011;21379;50.962;6.960;2023-12-20T08:00:20;5.75;;;2.30;;
35245;SDS011;21379;50.962;6.960;2023-12-20T08:02:47;6.13;;;2.63;;
35245;SDS011;21379;50.962;6.960;2023-12-20T08:05:15;13.45;;;4.10;;
35245;SDS011;21379;50.962;6.960;2023-12-20T08:10:08;15.82;;;4.22;;
35245;SDS011;21379;50.962;6.960;2023-12-20T08:12:35;5.93;;;2.30;;
35245;SDS011;21379;50.962;6.960;2023-12-20T08:15:01;8.98;;;4.00;;
35245;SDS011;21379;50.962;6.960;2023-12-20T08:17:29;9.45;;;3.28;;
35245;SDS011;21379;50.962;6.960;2023-12-20T08:19:55;14.77;;;3.75;;
35245;SDS011;21379;50.962;6.960;2023-12-20T08:22:23;12.60;;;3.50;;
35245;SDS011;21379;50.962;6.960;2023-12-20T08:24:50;6.47;;;3.20;;
35245;SDS011;21379;50.962;6.960;2023-12-20T08:27:17;10.32;;;2.97;;
35245;SDS011;21379;50.962;6.960;2023-12-20T08:29:44;13.07;;;4.50;;
35245;SDS011;21379;50.962;6.960;2023-12-20T08:32:11;11.70;;;3.85;;
35245;SDS011;21379;50.962;6.960;2023-12-20T08:34:37;11.80;;;4.03;;
35245;SDS011;21379;50.962;6.960;2023-12-20T08:37:04;11.35;;;3.60;;
35245;SDS011;21379;50.962;6.960;2023-12-20T08:39:32;13.52;;;3.78;;
35245;SDS011;21379;50.962;6.960;2023-12-20T08:41:59;8.82;;;3.17;;
35245;SDS011;21379;50.962;6.960;2023-12-20T08:44:26;9.35;;;2.90;;
35245;SDS011;21379;50.962;6.960;2023-12-20T08:46:53;15.32;;;2.90;;
35245;SDS011;21379;50.962;6.960;2023-12-20T08:49:22;20.23;;;4.07;;
35245;SDS011;21379;50.962;6.960;2023-12-20T08:51:48;8.02;;;3.40;;
35245;SDS011;21379;50.962;6.960;2023-12-20T08:54:15;15.77;;;3.63;;
35245;SDS011;21379;50.962;6.960;2023-12-20T08:56:43;13.70;;;3.03;;
35245;SDS011;21379;50.962;6.960;2023-12-20T08:59:11;6.13;;;2.28;;
35245;SDS011;21379;50.962;6.960;2023-12-20T09:01:37;12.38;;;2.67;;
35245;SDS011;21379;50.962;6.960;2023-12-20T09:04:04;10.15;;;3.17;;
35245;SDS011;21379;50.962;6.960;2023-12-20T09:06:31;6.75;;;2.92;;
35245;SDS011;21379;50.962;6.960;2023-12-20T09:08:58;7.95;;;3.28;;
35245;SDS011;21379;50.962;6.960;2023-12-20T09:11:25;9.75;;;3.20;;
35245;SDS011;21379;50.962;6.960;2023-12-20T09:13:53;11.07;;;3.17;;
35245;SDS011;21379;50.962;6.960;2023-12-20T09:16:19;12.82;;;3.30;;
35245;SDS011;21379;50.962;6.960;2023-12-20T09:18:46;10.82;;;3.08;;
35245;SDS011;21379;50.962;6.960;2023-12-20T09:21:13;9.05;;;2.92;;
35245;SDS011;21379;50.962;6.960;2023-12-20T09:23:39;9.60;;;3.65;;
35245;SDS011;21379;50.962;6.960;2023-12-20T09:26:06;12.02;;;2.85;;
35245;SDS011;21379;50.962;6.960;2023-12-20T09:28:33;11.02;;;3.30;;
35245;SDS011;21379;50.962;6.960;2023-12-20T09:31:04;13.88;;;2.83;;
35245;SDS011;21379;50.962;6.960;2023-12-20T09:33:31;4.82;;;1.63;;
35245;SDS011;21379;50.962;6.960;2023-12-20T09:35:58;6.68;;;2.53;;
35245;SDS011;21379;50.962;6.960;2023-12-20T09:38:25;13.40;;;2.83;;
35245;SDS011;21379;50.962;6.960;2023-12-20T09:40:52;9.55;;;2.78;;
35245;SDS011;21379;50.962;6.960;2023-12-20T09:43:19;15.45;;;3.00;;
35245;SDS011;21379;50.962;6.960;2023-12-20T09:45:46;13.45;;;3.63;;
35245;SDS011;21379;50.962;6.960;2023-12-20T09:48:16;10.95;;;2.50;;
35245;SDS011;21379;50.962;6.960;2023-12-20T09:50:44;12.38;;;3.33;;
35245;SDS011;21379;50.962;6.960;2023-12-20T09:53:11;8.20;;;2.65;;
35245;SDS011;21379;50.962;6.960;2023-12-20T09:55:41;14.60;;;3.40;;
35245;SDS011;21379;50.962;6.960;2023-12-20T09:58:08;10.77;;;3.20;;
35245;SDS011;21379;50.962;6.960;2023-12-20T10:00:35;6.00;;;2.97;;
35245;SDS011;21379;50.962;6.960;2023-12-20T10:03:02;10.10;;;3.40;;
35245;SDS011;21379;50.962;6.960;2023-12-20T10:05:31;8.73;;;2.60;;
35245;SDS011;21379;50.962;6.960;2023-12-20T10:07:59;11.00;;;3.22;;
35245;SDS011;21379;50.962;6.960;2023-12-20T10:10:26;9.43;;;2.50;;
35245;SDS011;21379;50.962;6.960;2023-12-20T10:13:03;4.68;;;2.40;;
35245;SDS011;21379;50.962;6.960;2023-12-20T10:15:32;9.27;;;2.47;;
35245;SDS011;21379;50.962;6.960;2023-12-20T10:17:58;13.60;;;2.72;;
35245;SDS011;21379;50.962;6.960;2023-12-20T10:20:25;7.63;;;2.60;;
35245;SDS011;21379;50.962;6.960;2023-12-20T10:22:55;12.45;;;2.95;;
35245;SDS011;21379;50.962;6.960;2023-12-20T10:25:22;8.60;;;2.78;;
35245;SDS011;21379;50.962;6.960;2023-12-20T10:27:49;9.85;;;3.42;;
35245;SDS011;21379;50.962;6.960;2023-12-20T10:30:16;10.40;;;2.63;;
35245;SDS011;21379;50.962;6.960;2023-12-20T10:32:43;9.00;;;2.60;;
35245;SDS011;21379;50.962;6.960;2023-12-20T10:35:10;4.75;;;2.67;;
35245;SDS011;21379;50.962;6.960;2023-12-20T10:37:37;9.20;;;2.22;;
35245;SDS011;21379;50.962;6.960;2023-12-20T10:40:05;10.43;;;2.50;;
35245;SDS011;21379;50.962;6.960;2023-12-20T10:42:33;5.70;;;2.13;;
35245;SDS011;21379;50.962;6.960;2023-12-20T10:45:01;11.88;;;2.40;;
35245;SDS011;21379;50.962;6.960;2023-12-20T10:47:28;10.48;;;2.50;;
35245;SDS011;21379;50.962;6.960;2023-12-20T10:49:57;10.18;;;2.88;;
35245;SDS011;21379;50.962;6.960;2023-12-20T10:52:23;5.35;;;2.40;;
35245;SDS011;21379;50.962;6.960;2023-12-20T10:54:50;9.77;;;2.50;;
35245;SDS011;21379;50.962;6.960;2023-12-20T10:57:19;8.95;;;2.42;;
35245;SDS011;21379;50.962;6.960;2023-12-20T10:59:46;13.82;;;2.60;;
35245;SDS011;21379;50.962;6.960;2023-12-20T11:02:15;5.35;;;2.17;;
35245;SDS011;21379;50.962;6.960;2023-12-20T11:04:44;10.82;;;2.67;;
35245;SDS011;21379;50.962;6.960;2023-12-20T11:07:17;8.73;;;3.25;;
35245;SDS011;21379;50.962;6.960;2023-12-20T11:09:49;6.72;;;2.63;;
35245;SDS011;21379;50.962;6.960;2023-12-20T11:12:29;6.00;;;2.22;;
35245;SDS011;21379;50.962;6.960;2023-12-20T11:15:01;13.07;;;3.00;;
35245;SDS011;21379;50.962;6.960;2023-12-20T11:17:29;10.50;;;3.92;;
35245;SDS011;21379;50.962;6.960;2023-12-20T11:20:04;7.78;;;1.98;;
35245;SDS011;21379;50.962;6.960;2023-12-20T11:22:40;10.25;;;2.83;;
35245;SDS011;21379;50.962;6.960;2023-12-20T11:25:18;10.07;;;2.42;;
35245;SDS011;21379;50.962;6.960;2023-12-20T11:28:06;9.55;;;2.33;;
35245;SDS011;21379;50.962;6.960;2023-12-20T11:30:41;10.82;;;2.92;;
35245;SDS011;21379;50.962;6.960;2023-12-20T11:33:08;5.97;;;2.17;;
35245;SDS011;21379;50.962;6.960;2023-12-20T11:35:35;9.32;;;2.75;;
35245;SDS011;21379;50.962;6.960;2023-12-20T11:38:03;6.35;;;2.00;;
35245;SDS011;21379;50.962;6.960;2023-12-20T11:40:30;6.90;;;2.55;;
35245;SDS011;21379;50.962;6.960;2023-12-20T11:42:59;10.95;;;2.67;;
35245;SDS011;21379;50.962;6.960;2023-12-20T11:45:26;11.63;;;2.95;;
35245;SDS011;21379;50.962;6.960;2023-12-20T11:47:55;11.57;;;2.33;;
35245;SDS011;21379;50.962;6.960;2023-12-20T11:50:23;8.90;;;2.70;;
35245;SDS011;21379;50.962;6.960;2023-12-20T11:52:51;9.85;;;3.28;;
35245;SDS011;21379;50.962;6.960;2023-12-20T11:55:18;6.50;;;2.30;;
35245;SDS011;21379;50.962;6.960;2023-12-20T11:57:45;6.85;;;2.10;;
35245;SDS011;21379;50.962;6.960;2023-12-20T12:00:12;10.27;;;2.60;;
35245;SDS011;21379;50.962;6.960;2023-12-20T12:07:34;11.77;;;2.45;;
35245;SDS011;21379;50.962;6.960;2023-12-20T12:10:01;4.07;;;2.10;;
35245;SDS011;21379;50.962;6.960;2023-12-20T12:12:29;5.93;;;1.90;;
35245;SDS011;21379;50.962;6.960;2023-12-20T12:14:56;7.38;;;2.65;;
35245;SDS011;21379;50.962;6.960;2023-12-20T12:17:23;4.97;;;1.73;;
35245;SDS011;21379;50.962;6.960;2023-12-20T12:19:50;9.65;;;2.30;;
35245;SDS011;21379;50.962;6.960;2023-12-20T12:22:18;6.78;;;2.03;;
35245;SDS011;21379;50.962;6.960;2023-12-20T12:27:12;8.23;;;2.38;;
35245;SDS011;21379;50.962;6.960;2023-12-20T12:29:39;6.30;;;2.40;;
35245;SDS011;21379;50.962;6.960;2023-12-20T12:32:06;14.10;;;3.53;;
35245;SDS011;21379;50.962;6.960;2023-12-20T12:34:33;9.38;;;2.92;;
35245;SDS011;21379;50.962;6.960;2023-12-20T12:37:00;15.77;;;3.28;;
35245;SDS011;21379;50.962;6.960;2023-12-20T12:39:28;5.57;;;2.83;;
35245;SDS011;21379;50.962;6.960;2023-12-20T12:41:56;9.27;;;2.83;;
35245;SDS011;21379;50.962;6.960;2023-12-20T12:44:23;9.20;;;3.05;;
35245;SDS011;21379;50.962;6.960;2023-12-20T12:46:50;5.15;;;2.20;;
35245;SDS011;21379;50.962;6.960;2023-12-20T12:49:18;6.03;;;2.40;;
35245;SDS011;21379;50.962;6.960;2023-12-20T12:51:46;5.82;;;2.70;;
35245;SDS011;21379;50.962;6.960;2023-12-20T12:54:13;9.02;;;2.78;;
35245;SDS011;21379;50.962;6.960;2023-12-20T12:56:42;3.40;;;1.92;;
35245;SDS011;21379;50.962;6.960;2023-12-20T12:59:09;15.23;;;2.70;;
35245;SDS011;21379;50.962;6.960;2023-12-20T13:01:36;16.98;;;3.97;;
35245;SDS011;21379;50.962;6.960;2023-12-20T13:04:04;12.15;;;3.20;;
35245;SDS011;21379;50.962;6.960;2023-12-20T13:06:35;9.15;;;2.50;;
35245;SDS011;21379;50.962;6.960;2023-12-20T13:09:02;14.38;;;3.75;;
35245;SDS011;21379;50.962;6.960;2023-12-20T13:11:29;12.10;;;2.90;;
35245;SDS011;21379;50.962;6.960;2023-12-20T13:13:58;7.35;;;2.80;;
35245;SDS011;21379;50.962;6.960;2023-12-20T13:16:24;15.40;;;3.85;;
35245;SDS011;21379;50.962;6.960;2023-12-20T13:18:51;12.35;;;3.90;;
35245;SDS011;21379;50.962;6.960;2023-12-20T13:21:18;11.75;;;3.33;;
35245;SDS011;21379;50.962;6.960;2023-12-20T13:23:44;9.73;;;2.97;;
35245;SDS011;21379;50.962;6.960;2023-12-20T13:26:11;10.70;;;3.28;;
35245;SDS011;21379;50.962;6.960;2023-12-20T13:28:38;8.07;;;2.85;;
35245;SDS011;21379;50.962;6.960;2023-12-20T13:31:06;11.68;;;4.15;;
35245;SDS011;21379;50.962;6.960;2023-12-20T13:45:47;11.38;;;3.00;;
35245;SDS011;21379;50.962;6.960;2023-12-20T13:48:15;10.32;;;2.80;;
35245;SDS011;21379;50.962;6.960;2023-12-20T13:50:41;10.23;;;2.80;;
35245;SDS011;21379;50.962;6.960;2023-12-20T13:53:08;9.10;;;2.38;;
35245;SDS011;21379;50.962;6.960;2023-12-20T13:55:35;15.25;;;3.47;;
35245;SDS011;21379;50.962;6.960;2023-12-20T13:58:02;10.60;;;2.75;;
35245;SDS011;21379;50.962;6.960;2023-12-20T14:00:28;12.23;;;2.70;;
35245;SDS011;21379;50.962;6.960;2023-12-20T14:02:55;10.55;;;3.03;;
35245;SDS011;21379;50.962;6.960;2023-12-20T14:05:23;11.13;;;3.08;;
35245;SDS011;21379;50.962;6.960;2023-12-20T14:07:50;10.20;;;2.70;;
35245;SDS011;21379;50.962;6.960;2023-12-20T14:10:17;3.33;;;1.88;;
35245;SDS011;21379;50.962;6.960;2023-12-20T14:12:43;11.80;;;3.13;;
35245;SDS011;21379;50.962;6.960;2023-12-20T14:15:10;6.35;;;2.20;;
35245;SDS011;21379;50.962;6.960;2023-12-20T14:17:38;8.63;;;2.67;;
35245;SDS011;21379;50.962;6.960;2023-12-20T14:20:05;5.15;;;2.20;;
35245;SDS011;21379;50.962;6.960;2023-12-20T14:25:01;11.40;;;2.20;;
35245;SDS011;21379;50.962;6.960;2023-12-20T14:27:28;7.10;;;2.90;;
35245;SDS011;21379;50.962;6.960;2023-12-20T14:29:54;8.02;;;2.85;;
35245;SDS011;21379;50.962;6.960;2023-12-20T14:32:21;9.07;;;2.08;;
35245;SDS011;21379;50.962;6.960;2023-12-20T14:34:48;8.77;;;2.25;;
35245;SDS011;21379;50.962;6.960;2023-12-20T14:37:14;5.57;;;2.50;;
35245;SDS011;21379;50.962;6.960;2023-12-20T14:39:43;12.52;;;2.80;;
35245;SDS011;21379;50.962;6.960;2023-12-20T14:44:39;5.60;;;1.73;;
35245;SDS011;21379;50.962;6.960;2023-12-20T14:47:06;6.95;;;2.15;;
35245;SDS011;21379;50.962;6.960;2023-12-20T14:49:32;5.03;;;2.00;;
35245;SDS011;21379;50.962;6.960;2023-12-20T14:51:59;8.05;;;1.88;;
35245;SDS011;21379;50.962;6.960;2023-12-20T14:54:26;6.07;;;2.10;;
35245;SDS011;21379;50.962;6.960;2023-12-20T14:56:54;5.38;;;2.53;;
35245;SDS011;21379;50.962;6.960;2023-12-20T14:59:20;9.77;;;3.13;;
35245;SDS011;21379;50.962;6.960;2023-12-20T15:01:47;9.35;;;2.70;;
35245;SDS011;21379;50.962;6.960;2023-12-20T15:04:14;11.02;;;3.67;;
35245;SDS011;21379;50.962;6.960;2023-12-20T15:06:41;8.75;;;1.98;;
35245;SDS011;21379;50.962;6.960;2023-12-20T15:09:07;7.75;;;2.63;;
35245;SDS011;21379;50.962;6.960;2023-12-20T15:11:34;5.43;;;2.63;;
35245;SDS011;21379;50.962;6.960;2023-12-20T15:14:02;9.70;;;2.55;;
35245;SDS011;21379;50.962;6.960;2023-12-20T15:16:29;8.98;;;2.88;;
35245;SDS011;21379;50.962;6.960;2023-12-20T15:18:56;5.53;;;1.95;;
35245;SDS011;21379;50.962;6.960;2023-12-20T15:21:23;10.68;;;3.75;;
35245;SDS011;21379;50.962;6.960;2023-12-20T15:23:56;11.40;;;2.40;;
35245;SDS011;21379;50.962;6.960;2023-12-20T15:26:31;7.32;;;2.63;;
35245;SDS011;21379;50.962;6.960;2023-12-20T15:28:58;6.00;;;2.47;;
35245;SDS011;21379;50.962;6.960;2023-12-20T15:31:27;8.75;;;2.78;;
35245;SDS011;21379;50.962;6.960;2023-12-20T15:36:21;5.72;;;2.60;;
35245;SDS011;21379;50.962;6.960;2023-12-20T15:38:47;8.32;;;2.58;;
35245;SDS011;21379;50.962;6.960;2023-12-20T15:41:17;7.15;;;2.75;;